createdAt,value
2018-09-01T00:00:37.723Z,1229.53
2018-09-01T00:03:05.734Z,651.83
2018-09-01T00:05:33.748Z,537.33
2018-09-01T00:08:01.767Z,597.27
2018-09-01T00:10:29.774Z,744.53
2018-09-01T00:12:57.778Z,805.93
2018-09-01T00:15:25.878Z,760.67
2018-09-01T00:17:53.889Z,801.33
2018-09-01T00:20:21.907Z,856.60
2018-09-01T00:22:49.923Z,923.37
2018-09-01T00:25:17.927Z,850.90
2018-09-01T00:27:45.934Z,757.43
2018-09-01T00:30:13.943Z,853.30
2018-09-01T00:32:41.954Z,898.77
2018-09-01T00:35:09.959Z,875.60
2018-09-01T00:37:43.407Z,597.20
2018-09-01T00:40:11.411Z,562.97
2018-09-01T00:42:39.423Z,522.10
2018-09-01T00:45:07.500Z,677.77
2018-09-01T00:47:35.518Z,728.30
2018-09-01T00:50:03.523Z,765.00
2018-09-01T00:52:31.536Z,676.30
2018-09-01T00:54:59.540Z,450.77
2018-09-01T00:57:27.546Z,342.33
2018-09-01T00:59:55.555Z,338.23
2018-09-01T01:02:23.739Z,487.47
2018-09-01T01:04:51.755Z,695.50
2018-09-01T01:07:19.758Z,774.20
2018-09-01T01:09:47.755Z,789.57
2018-09-01T01:12:15.766Z,774.50
2018-09-01T01:14:43.768Z,856.33
2018-09-01T01:17:11.779Z,970.77
2018-09-01T01:19:40.582Z,947.87
2018-09-01T01:22:08.594Z,889.43
2018-09-01T01:24:36.691Z,817.57
2018-09-01T01:27:05.727Z,705.97
2018-09-01T01:29:33.734Z,781.77
2018-09-01T01:32:01.750Z,911.37
2018-09-01T01:34:29.758Z,824.03
2018-09-01T01:36:57.758Z,855.53
2018-09-01T01:39:32.331Z,821.33
2018-09-01T01:42:00.335Z,759.17
2018-09-01T01:44:28.325Z,824.60
2018-09-01T01:46:56.842Z,456.07
2018-09-01T01:49:24.875Z,492.73
2018-09-01T01:51:52.887Z,760.20
2018-09-01T01:54:20.887Z,849.33
2018-09-01T01:56:48.898Z,686.77
2018-09-01T01:59:16.891Z,741.30
2018-09-01T02:01:44.894Z,754.43
2018-09-01T02:04:12.894Z,800.47
2018-09-01T02:06:40.913Z,819.30
2018-09-01T02:09:08.912Z,828.80
2018-09-01T02:11:36.919Z,934.87
2018-09-01T02:14:04.931Z,821.13
2018-09-01T02:16:32.927Z,769.17
2018-09-01T02:19:00.947Z,178.20
2018-09-01T02:21:28.948Z,274.33
2018-09-01T02:23:56.959Z,299.70
2018-09-01T02:26:24.959Z,284.13
2018-09-01T02:28:52.972Z,480.07
2018-09-01T02:31:20.976Z,607.77
2018-09-01T02:33:48.980Z,560.53
2018-09-01T02:36:16.971Z,336.17
2018-09-01T02:38:44.982Z,548.20
2018-09-01T02:41:13.058Z,536.70
2018-09-01T02:43:41.068Z,609.00
2018-09-01T02:46:09.063Z,668.33
2018-09-01T02:48:37.067Z,694.53
2018-09-01T02:51:05.104Z,720.00
2018-09-01T02:53:33.108Z,610.97
2018-09-01T02:56:01.147Z,579.57
2018-09-01T02:58:29.157Z,608.97
2018-09-01T03:01:02.695Z,596.03
2018-09-01T03:03:30.732Z,583.53
2018-09-01T03:05:58.723Z,605.57
2018-09-01T03:08:26.770Z,628.60
2018-09-01T03:10:54.775Z,539.40
2018-09-01T03:13:22.774Z,502.37
2018-09-01T03:15:50.780Z,501.23
2018-09-01T03:18:18.803Z,473.93
2018-09-01T03:20:46.846Z,490.53
2018-09-01T03:23:14.858Z,428.77
2018-09-01T03:25:42.861Z,441.13
2018-09-01T03:28:10.883Z,428.43
2018-09-01T03:30:38.894Z,410.37
2018-09-01T03:33:06.926Z,416.83
2018-09-01T03:35:34.951Z,181.17
2018-09-01T03:38:02.998Z,103.30
2018-09-01T03:40:31.009Z,301.77
2018-09-01T03:42:59.019Z,320.00
2018-09-01T03:45:27.028Z,293.90
2018-09-01T03:47:55.292Z,200.97
2018-09-01T03:50:23.298Z,198.50
2018-09-01T03:52:51.315Z,279.50
2018-09-01T03:55:19.331Z,235.67
2018-09-01T03:57:47.375Z,223.50
2018-09-01T04:00:15.387Z,247.27
2018-09-01T04:02:43.395Z,268.03
2018-09-01T04:05:11.410Z,238.47
2018-09-01T04:07:39.442Z,255.67
2018-09-01T04:10:07.462Z,245.20
2018-09-01T04:12:35.470Z,244.73
2018-09-01T04:15:03.495Z,269.17
2018-09-01T04:17:31.510Z,278.37
2018-09-01T04:19:59.515Z,244.33
2018-09-01T04:22:27.523Z,249.60
2018-09-01T04:24:55.535Z,265.27
2018-09-01T04:27:23.530Z,262.23
2018-09-01T04:29:51.547Z,271.70
2018-09-01T04:32:19.543Z,240.77
2018-09-01T04:34:47.547Z,241.23
2018-09-01T04:37:15.544Z,90.93
2018-09-01T04:39:43.651Z,45.00
2018-09-01T04:42:11.648Z,63.40
2018-09-01T04:44:39.751Z,205.70
2018-09-01T04:47:07.840Z,207.10
2018-09-01T04:49:35.787Z,186.27
2018-09-01T04:52:03.775Z,31.60
2018-09-01T04:54:31.772Z,19.73
2018-09-01T04:56:59.774Z,47.00
2018-09-01T04:59:27.820Z,113.77
2018-09-01T05:01:55.816Z,86.47
2018-09-01T05:04:23.818Z,148.17
2018-09-01T05:06:51.827Z,250.83
2018-09-01T05:09:19.826Z,492.47
2018-09-01T05:11:47.831Z,507.43
2018-09-01T05:14:15.831Z,695.97
2018-09-01T05:16:43.838Z,1158.37
2018-09-01T05:19:11.864Z,1101.90
2018-09-01T05:21:39.870Z,729.43
2018-09-01T05:24:07.887Z,120.87
2018-09-01T05:26:35.882Z,62.73
2018-09-01T05:29:10.511Z,48.23
2018-09-01T05:31:38.524Z,43.90
2018-09-01T05:34:06.567Z,72.07
2018-09-01T05:36:34.621Z,65.20
2018-09-01T05:39:02.586Z,48.37
2018-09-01T05:41:30.628Z,50.40
2018-09-01T05:43:58.644Z,21.80
2018-09-01T05:46:26.656Z,23.37
2018-09-01T05:48:54.678Z,45.37
2018-09-01T05:51:22.673Z,73.40
2018-09-01T05:53:50.680Z,172.73
2018-09-01T05:56:18.690Z,441.00
2018-09-01T05:58:46.695Z,623.47
2018-09-01T06:01:14.719Z,451.57
2018-09-01T06:03:42.727Z,664.70
2018-09-01T06:06:10.994Z,818.37
2018-09-01T06:08:38.846Z,757.00
2018-09-01T06:11:06.871Z,892.50
2018-09-01T06:13:34.882Z,1044.40
2018-09-01T06:16:02.903Z,1024.40
2018-09-01T06:18:30.906Z,1120.00
2018-09-01T06:20:58.923Z,1398.33
2018-09-01T06:23:26.944Z,1368.80
2018-09-01T06:25:54.963Z,1363.23
2018-09-01T06:28:32.748Z,1574.00
2018-09-01T06:31:00.768Z,1870.23
2018-09-01T06:33:28.782Z,1802.10
2018-09-01T06:35:56.803Z,1999.90
2018-09-01T06:38:24.814Z,1999.90
2018-09-01T06:40:52.831Z,1999.90
2018-09-01T06:43:20.841Z,1999.90
2018-09-01T06:45:48.856Z,1999.90
2018-09-01T06:48:16.871Z,1999.90
2018-09-01T06:50:44.901Z,1999.90
2018-09-01T06:53:12.902Z,1999.90
2018-09-01T06:55:41.252Z,1999.90
2018-09-01T06:58:09.258Z,1999.90
2018-09-01T07:00:37.279Z,1999.90
2018-09-01T07:03:05.371Z,1999.90
2018-09-01T07:05:33.386Z,1999.90
2018-09-01T07:08:01.560Z,1999.90
2018-09-01T07:10:29.589Z,1999.90
2018-09-01T07:12:57.587Z,1999.90
2018-09-01T07:15:25.608Z,1999.90
2018-09-01T07:17:53.618Z,1999.90
2018-09-01T07:20:21.731Z,1999.90
2018-09-01T07:22:49.736Z,1999.90
2018-09-01T07:25:17.747Z,1999.90
2018-09-01T07:27:45.866Z,1999.90
2018-09-01T07:30:13.935Z,1999.90
2018-09-01T07:32:41.904Z,1999.90
2018-09-01T07:35:09.919Z,1999.90
2018-09-01T07:37:38.003Z,1999.90
2018-09-01T07:40:06.025Z,1999.90
2018-09-01T07:42:34.031Z,1999.90
2018-09-01T07:45:02.035Z,1999.90
2018-09-01T07:47:30.076Z,1999.90
2018-09-01T07:49:58.099Z,1999.90
2018-09-01T07:52:26.194Z,1999.90
2018-09-01T07:54:54.209Z,1999.90
2018-09-01T07:57:22.235Z,1999.90
2018-09-01T07:59:50.139Z,1999.90
2018-09-01T08:02:17.984Z,1999.90
2018-09-01T08:04:45.982Z,1999.90
2018-09-01T08:07:14.027Z,1999.90
2018-09-01T08:09:41.864Z,1999.90
2018-09-01T08:12:09.891Z,1999.90
2018-09-01T08:14:38.026Z,1999.90
2018-09-01T08:17:05.810Z,1999.90
2018-09-01T08:19:33.658Z,1537.47
2018-09-01T08:22:01.503Z,1721.47
2018-09-01T08:24:29.338Z,898.63
2018-09-01T08:26:57.366Z,1982.77
2018-09-01T08:29:25.404Z,1999.90
2018-09-01T08:31:53.427Z,1999.90
2018-09-01T08:34:21.451Z,1999.90
2018-09-01T08:36:49.491Z,1999.90
2018-09-01T08:39:17.513Z,1999.90
2018-09-01T08:41:45.542Z,1999.90
2018-09-01T08:44:13.567Z,1999.90
2018-09-01T08:46:41.604Z,1999.90
2018-09-01T08:49:09.627Z,1999.90
2018-09-01T08:51:37.654Z,1999.90
2018-09-01T08:54:05.715Z,1999.90
2018-09-01T08:56:33.763Z,1999.90
2018-09-01T08:59:01.747Z,1986.60
2018-09-01T09:01:29.771Z,1639.97
2018-09-01T09:03:57.778Z,907.50
2018-09-01T09:06:25.798Z,930.80
2018-09-01T09:08:53.811Z,1009.20
2018-09-01T09:11:21.855Z,1065.30
2018-09-01T09:13:49.882Z,1203.70
2018-09-01T09:16:17.726Z,1999.90
2018-09-01T09:18:45.571Z,1999.90
2018-09-01T09:21:13.399Z,909.37
2018-09-01T09:23:41.230Z,1999.90
2018-09-01T09:26:09.086Z,1999.90
2018-09-01T09:28:36.923Z,1999.90
2018-09-01T09:31:04.783Z,1999.90
2018-09-01T09:33:32.634Z,1688.60
2018-09-01T09:36:00.462Z,728.17
2018-09-01T09:38:28.297Z,977.63
2018-09-01T09:40:56.127Z,337.57
2018-09-01T09:43:23.970Z,1999.90
2018-09-01T09:45:51.808Z,1999.90
2018-09-01T09:48:19.845Z,1976.57
2018-09-01T09:50:47.711Z,1617.80
2018-09-01T09:53:15.611Z,1999.90
2018-09-01T09:55:43.442Z,1999.90
2018-09-01T09:58:11.293Z,1999.90
2018-09-01T10:00:44.630Z,963.13
2018-09-01T10:03:12.502Z,699.83
2018-09-01T10:05:40.378Z,642.07
2018-09-01T10:08:08.175Z,136.30
2018-09-01T10:10:36.090Z,1363.53
2018-09-01T10:13:03.922Z,1793.53
2018-09-01T10:15:31.782Z,1733.33
2018-09-01T10:17:59.719Z,1502.97
2018-09-01T10:20:27.644Z,611.73
2018-09-01T10:22:55.449Z,1044.40
2018-09-01T10:25:23.353Z,198.03
2018-09-01T10:27:51.209Z,451.90
2018-09-01T10:30:19.030Z,279.50
2018-09-01T10:32:46.929Z,208.47
2018-09-01T10:35:14.843Z,277.33
2018-09-01T10:37:42.678Z,607.67
2018-09-01T10:40:10.510Z,511.80
2018-09-01T10:42:38.518Z,1108.10
2018-09-01T10:45:06.433Z,1016.47
2018-09-01T10:47:34.270Z,703.03
2018-09-01T10:50:02.102Z,49.43
2018-09-01T10:52:29.926Z,602.80
2018-09-01T10:54:57.746Z,24.03
2018-09-01T10:57:25.590Z,823.93
2018-09-01T10:59:53.473Z,777.20
2018-09-01T11:02:21.277Z,195.67
2018-09-01T11:04:49.104Z,219.73
2018-09-01T11:07:16.966Z,638.17
2018-09-01T11:09:44.807Z,791.00
2018-09-01T11:12:12.682Z,934.83
2018-09-01T11:14:40.527Z,465.23
2018-09-01T11:17:08.358Z,92.40
2018-09-01T11:19:36.249Z,25.43
2018-09-01T11:22:04.091Z,21.20
2018-09-01T11:24:31.935Z,331.93
2018-09-01T11:27:07.115Z,107.07
2018-09-01T11:29:42.628Z,22.50
2018-09-01T11:32:11.294Z,20.80
2018-09-01T11:34:46.195Z,21.03
2018-09-01T11:37:15.802Z,397.37
2018-09-01T11:39:43.778Z,429.77
2018-09-01T11:42:11.711Z,29.57
2018-09-01T11:44:39.654Z,28.30
2018-09-01T11:47:07.499Z,17.10
2018-09-01T11:49:35.681Z,18.00
2018-09-01T11:52:03.571Z,20.87
2018-09-01T11:54:31.462Z,22.90
2018-09-01T11:56:59.299Z,20.13
2018-09-01T11:59:27.237Z,16.87
2018-09-01T12:01:55.016Z,100.07
2018-09-01T12:04:22.858Z,17.13
2018-09-01T12:06:50.761Z,17.60
2018-09-01T12:09:18.689Z,20.97
2018-09-01T12:11:46.668Z,19.93
2018-09-01T12:14:14.582Z,19.17
2018-09-01T12:20:46.340Z,17.23
2018-09-01T12:23:14.859Z,18.67
2018-09-01T12:25:42.868Z,21.60
2018-09-01T12:28:10.817Z,19.27
2018-09-01T12:30:38.871Z,19.47
2018-09-01T12:33:06.924Z,21.10
2018-09-01T12:35:34.782Z,18.43
2018-09-01T12:38:02.618Z,17.77
2018-09-01T12:40:30.979Z,18.40
2018-09-01T12:42:59.827Z,18.60
2018-09-01T12:45:27.664Z,20.37
2018-09-01T12:47:55.511Z,146.33
2018-09-01T12:50:23.443Z,181.30
2018-09-01T12:52:51.275Z,92.13
2018-09-01T12:55:19.207Z,317.50
2018-09-01T12:57:47.102Z,424.87
2018-09-01T13:00:14.953Z,710.83
2018-09-01T13:02:42.795Z,660.80
2018-09-01T13:05:10.715Z,379.60
2018-09-01T13:07:38.574Z,214.63
2018-09-01T13:10:06.478Z,246.43
2018-09-01T13:12:34.323Z,21.37
2018-09-01T13:15:02.276Z,20.97
2018-09-01T13:17:30.175Z,19.10
2018-09-01T13:19:58.107Z,18.43
2018-09-01T13:22:26.028Z,155.63
2018-09-01T13:24:54.913Z,92.07
2018-09-01T13:27:22.742Z,218.17
2018-09-01T13:29:50.672Z,51.67
2018-09-01T13:32:18.680Z,128.43
2018-09-01T13:34:46.518Z,420.23
2018-09-01T13:37:14.462Z,452.10
2018-09-01T13:39:42.422Z,159.20
2018-09-01T13:42:10.250Z,21.03
2018-09-01T13:44:38.124Z,20.67
2018-09-01T13:47:05.925Z,167.60
2018-09-01T13:49:33.779Z,21.33
2018-09-01T13:52:01.683Z,19.63
2018-09-01T13:54:29.510Z,16.90
2018-09-01T13:56:57.338Z,19.60
2018-09-01T13:59:25.179Z,19.20
2018-09-01T14:01:53.028Z,45.57
2018-09-01T14:04:20.886Z,182.30
2018-09-01T14:06:48.795Z,132.77
2018-09-01T14:09:16.667Z,279.43
2018-09-01T14:11:44.701Z,427.53
2018-09-01T14:14:12.541Z,572.23
2018-09-01T14:16:40.390Z,879.03
2018-09-01T14:19:08.279Z,370.50
2018-09-01T14:21:36.179Z,22.77
2018-09-01T14:24:04.217Z,19.77
2018-09-01T14:26:32.180Z,19.10
2018-09-01T14:28:59.987Z,18.43
2018-09-01T14:31:27.834Z,39.80
2018-09-01T14:33:55.724Z,17.33
2018-09-01T14:36:23.711Z,16.37
2018-09-01T14:38:52.014Z,18.60
2018-09-01T14:41:20.001Z,16.83
2018-09-01T14:43:47.903Z,21.80
2018-09-01T14:46:16.014Z,27.27
2018-09-01T14:48:43.869Z,16.00
2018-09-01T14:51:11.718Z,19.17
2018-09-01T14:53:39.543Z,15.97
2018-09-01T14:56:07.613Z,18.57
2018-09-01T14:58:35.455Z,40.07
2018-09-01T15:01:03.294Z,146.17
2018-09-01T15:03:31.126Z,266.17
2018-09-01T15:05:59.030Z,100.07
2018-09-01T15:08:26.875Z,199.50
2018-09-01T15:10:54.812Z,46.70
2018-09-01T15:13:22.704Z,342.00
2018-09-01T15:15:50.606Z,534.10
2018-09-01T15:18:18.474Z,307.73
2018-09-01T15:20:46.310Z,48.20
2018-09-01T15:23:14.145Z,35.83
2018-09-01T15:25:41.971Z,22.13
2018-09-01T15:28:09.790Z,20.50
2018-09-01T15:30:37.622Z,22.13
2018-09-01T15:33:05.511Z,17.17
2018-09-01T15:35:33.412Z,18.57
2018-09-01T15:38:01.238Z,21.90
2018-09-01T15:40:29.070Z,17.40
2018-09-01T15:42:56.902Z,19.37
2018-09-01T15:45:24.743Z,55.03
2018-09-01T15:47:52.571Z,166.90
2018-09-01T15:50:20.410Z,380.07
2018-09-01T15:52:48.347Z,351.47
2018-09-01T15:55:16.179Z,146.97
2018-09-01T15:57:44.032Z,242.67
2018-09-01T16:00:11.958Z,44.23
2018-09-01T16:02:39.790Z,29.30
2018-09-01T16:05:07.719Z,20.73
2018-09-01T16:07:35.646Z,41.47
2018-09-01T16:10:03.723Z,51.47
2018-09-01T16:12:31.617Z,21.50
2018-09-01T16:14:59.518Z,19.37
2018-09-01T16:17:27.378Z,69.40
2018-09-01T16:19:55.208Z,85.20
2018-09-01T16:22:23.122Z,177.40
2018-09-01T16:24:50.946Z,300.13
2018-09-01T16:27:18.783Z,480.63
2018-09-01T16:29:46.616Z,483.03
2018-09-01T16:32:14.455Z,281.77
2018-09-01T16:34:42.377Z,387.27
2018-09-01T16:37:10.166Z,440.23
2018-09-01T16:39:37.994Z,335.20
2018-09-01T16:42:05.846Z,565.27
2018-09-01T16:47:07.982Z,675.70
2018-09-01T16:49:35.810Z,762.10
2018-09-01T16:52:03.749Z,841.63
2018-09-01T16:54:31.566Z,922.27
2018-09-01T16:56:59.402Z,977.57
2018-09-01T16:59:27.234Z,956.77
2018-09-01T17:01:55.081Z,1125.60
2018-09-01T17:04:22.909Z,1556.53
2018-09-01T17:06:50.791Z,953.80
2018-09-01T17:09:18.661Z,1094.77
2018-09-01T17:11:46.491Z,1398.20
2018-09-01T17:14:14.326Z,1407.87
2018-09-01T17:16:42.316Z,1471.90
2018-09-01T17:19:10.142Z,1548.50
2018-09-01T17:21:38.038Z,1458.37
2018-09-01T17:24:05.871Z,1922.83
2018-09-01T17:26:33.711Z,1808.63
2018-09-01T17:29:01.546Z,1775.37
2018-09-01T17:31:29.396Z,1647.47
2018-09-01T17:33:57.218Z,1449.73
2018-09-01T17:36:25.075Z,1724.77
2018-09-01T17:38:52.910Z,1877.47
2018-09-01T17:41:20.738Z,1987.73
2018-09-01T17:43:48.578Z,1999.90
2018-09-01T17:46:16.414Z,1999.90
2018-09-01T17:48:44.331Z,1999.90
2018-09-01T17:51:12.162Z,1999.90
2018-09-01T17:53:39.995Z,1999.90
2018-09-01T17:56:07.850Z,1999.90
2018-09-01T17:58:35.726Z,1999.90
2018-09-01T18:01:03.562Z,1999.90
2018-09-01T18:03:31.405Z,1999.90
2018-09-01T18:05:59.240Z,1999.90
2018-09-01T18:08:27.078Z,1999.90
2018-09-01T18:10:54.928Z,1999.90
2018-09-01T18:13:22.774Z,1999.90
2018-09-01T18:15:50.607Z,1999.90
2018-09-01T18:18:19.026Z,1999.90
2018-09-01T18:20:46.950Z,1999.90
2018-09-01T18:23:14.798Z,1999.90
2018-09-01T18:25:42.623Z,1999.90
2018-09-01T18:28:10.472Z,1999.90
2018-09-01T18:30:38.324Z,1999.90
2018-09-01T18:33:06.291Z,1999.90
2018-09-01T18:35:34.128Z,1999.90
2018-09-01T18:38:01.980Z,1999.90
2018-09-01T18:40:29.815Z,1999.90
2018-09-01T18:42:57.662Z,1999.90
2018-09-01T18:45:25.495Z,1999.90
2018-09-01T18:47:53.330Z,1999.90
2018-09-01T18:50:21.174Z,1999.90
2018-09-01T18:52:49.021Z,1999.90
2018-09-01T18:55:16.906Z,1999.90
2018-09-01T18:57:54.192Z,1999.90
2018-09-01T19:00:24.339Z,1999.90
2018-09-01T19:02:52.216Z,1999.90
2018-09-01T19:05:20.074Z,1999.90
2018-09-01T19:07:50.084Z,1999.90
2018-09-01T19:10:20.708Z,1999.90
2018-09-01T19:12:49.679Z,1999.90
2018-09-01T19:15:24.041Z,1999.90
2018-09-01T19:17:52.014Z,1999.90
2018-09-01T19:20:20.126Z,1981.90
2018-09-01T19:22:56.174Z,1999.90
2018-09-01T19:25:28.297Z,1944.97
2018-09-01T19:27:56.370Z,1924.80
2018-09-01T19:30:24.206Z,1819.57
2018-09-01T19:32:52.072Z,1862.17
2018-09-01T19:35:20.001Z,1836.83
2018-09-01T19:37:47.958Z,1739.37
2018-09-01T19:40:15.799Z,1854.43
2018-09-01T19:42:43.714Z,1740.60
2018-09-01T19:45:11.653Z,1802.73
2018-09-01T19:47:39.417Z,1780.87
2018-09-01T19:50:07.389Z,1902.03
2018-09-01T19:52:35.190Z,1919.53
2018-09-01T19:55:03.100Z,1999.90
2018-09-01T19:57:31.000Z,1957.83
2018-09-01T19:59:59.166Z,1999.90
2018-09-01T20:02:27.030Z,1949.70
2018-09-01T20:04:54.890Z,1950.03
2018-09-01T20:07:22.725Z,1922.10
2018-09-01T20:09:50.614Z,1944.03
2018-09-01T20:12:18.458Z,1921.37
2018-09-01T20:14:46.347Z,1926.43
2018-09-01T20:17:14.198Z,1953.40
2018-09-01T20:19:42.062Z,1965.93
2018-09-01T20:22:09.918Z,1984.63
2018-09-01T20:24:37.771Z,1870.70
2018-09-01T20:27:05.646Z,1849.40
2018-09-01T20:29:33.529Z,1923.13
2018-09-01T20:32:01.534Z,1831.03
2018-09-01T20:34:29.338Z,1749.93
2018-09-01T20:36:57.243Z,1875.97
2018-09-01T20:39:25.232Z,1881.77
2018-09-01T20:41:53.054Z,1796.93
2018-09-01T20:44:20.926Z,1819.00
2018-09-01T20:46:48.986Z,1762.17
2018-09-01T20:49:16.826Z,1839.53
2018-09-01T20:51:44.789Z,1806.67
2018-09-01T20:54:12.611Z,1966.10
2018-09-01T20:56:40.445Z,1890.30
2018-09-01T20:59:08.295Z,1890.93
2018-09-01T21:01:36.131Z,1800.67
2018-09-01T21:04:04.028Z,1799.30
2018-09-01T21:06:31.864Z,1772.57
2018-09-01T21:08:59.834Z,1788.90
2018-09-01T21:11:27.671Z,1792.80
2018-09-01T21:13:55.519Z,1836.63
2018-09-01T21:16:23.342Z,1787.93
2018-09-01T21:18:51.198Z,1849.23
2018-09-01T21:21:19.026Z,1834.20
2018-09-01T21:23:46.951Z,1798.60
2018-09-01T21:26:14.925Z,1861.27
2018-09-01T21:28:42.804Z,1812.60
2018-09-01T21:31:10.643Z,1999.90
2018-09-01T21:33:38.516Z,1937.43
2018-09-01T21:36:06.398Z,1998.83
2018-09-01T21:38:34.305Z,1999.90
2018-09-01T21:41:02.147Z,1999.90
2018-09-01T21:43:30.034Z,1999.90
2018-09-01T21:45:57.895Z,1999.90
2018-09-01T21:48:25.842Z,1999.90
2018-09-01T21:50:53.691Z,1999.90
2018-09-01T21:53:21.577Z,1999.90
2018-09-01T21:55:49.428Z,1999.90
2018-09-01T21:58:17.286Z,1999.90
2018-09-01T22:00:50.638Z,1999.90
2018-09-01T22:03:20.473Z,1999.90
2018-09-01T22:05:48.314Z,1999.90
2018-09-01T22:10:50.566Z,1999.90
2018-09-01T22:13:19.034Z,1999.90
2018-09-01T22:15:46.981Z,1999.90
2018-09-01T22:18:15.027Z,1999.90
2018-09-01T22:20:42.875Z,1999.90
2018-09-01T22:23:11.082Z,1999.90
2018-09-01T22:25:39.452Z,1999.90
2018-09-01T22:28:07.310Z,1999.90
2018-09-01T22:30:35.571Z,1999.90
2018-09-01T22:33:03.462Z,1999.90
2018-09-01T22:35:31.298Z,1999.90
2018-09-01T22:37:59.271Z,1999.90
2018-09-01T22:40:27.111Z,1999.90
2018-09-01T22:42:54.947Z,1999.90
2018-09-01T22:45:22.963Z,1999.90
2018-09-01T22:47:50.807Z,1999.90
2018-09-01T22:50:18.654Z,1999.90
2018-09-01T22:52:46.481Z,1999.90
2018-09-01T22:55:14.318Z,1999.90
2018-09-01T22:57:42.231Z,1999.90
2018-09-01T23:00:09.996Z,1999.90
2018-09-01T23:02:37.827Z,1999.90
2018-09-01T23:05:05.747Z,1999.90
2018-09-01T23:07:33.591Z,1999.90
2018-09-01T23:10:01.430Z,1999.90
2018-09-01T23:12:29.354Z,1999.90
2018-09-01T23:14:58.195Z,1999.90
2018-09-01T23:17:26.058Z,1999.90
2018-09-01T23:19:54.019Z,1999.90
2018-09-01T23:22:21.889Z,1999.90
2018-09-01T23:24:49.718Z,1999.90
2018-09-01T23:27:17.658Z,1999.90
2018-09-01T23:29:45.514Z,1999.90
2018-09-01T23:32:13.358Z,1999.90
2018-09-01T23:34:41.182Z,1999.90
2018-09-01T23:37:09.022Z,1999.90
2018-09-01T23:39:36.862Z,1999.90
2018-09-01T23:42:04.698Z,1999.90
2018-09-01T23:44:32.539Z,1999.90
2018-09-01T23:47:00.803Z,1999.90
2018-09-01T23:49:28.659Z,1999.90
2018-09-01T23:51:56.491Z,1999.90
2018-09-01T23:54:24.319Z,1999.90
2018-09-01T23:56:52.162Z,1999.90
2018-09-01T23:59:19.994Z,1999.90
